createdAt,value
2018-11-25T00:00:24.001Z,1004.88
2018-11-25T00:01:23.944Z,1004.92
2018-11-25T00:02:23.856Z,1004.86
2018-11-25T00:03:23.799Z,1004.89
2018-11-25T00:04:23.695Z,1004.90
2018-11-25T00:05:23.622Z,1004.85
2018-11-25T00:06:23.535Z,1004.87
2018-11-25T00:07:23.483Z,1004.88
2018-11-25T00:08:23.407Z,1004.87
2018-11-25T00:09:23.298Z,1004.82
2018-11-25T00:10:23.205Z,1004.86
2018-11-25T00:11:23.122Z,1004.85
2018-11-25T00:12:23.059Z,1004.79
2018-11-25T00:13:22.961Z,1004.82
2018-11-25T00:14:22.891Z,1004.80
2018-11-25T00:15:22.794Z,1004.81
2018-11-25T00:16:22.766Z,1004.81
2018-11-25T00:17:22.660Z,1004.83
2018-11-25T00:18:22.557Z,1004.79
2018-11-25T00:19:22.495Z,1004.79
2018-11-25T00:20:22.420Z,1004.79
2018-11-25T00:21:22.330Z,1004.77
2018-11-25T00:22:22.247Z,1004.79
2018-11-25T00:23:22.165Z,1004.85
2018-11-25T00:24:22.093Z,1004.82
2018-11-25T00:25:22.036Z,1004.75
2018-11-25T00:26:21.927Z,1004.82
2018-11-25T00:27:21.854Z,1004.80
2018-11-25T00:28:21.769Z,1004.77
2018-11-25T00:29:21.695Z,1004.72
2018-11-25T00:30:21.641Z,1004.73
2018-11-25T00:31:21.564Z,1004.75
2018-11-25T00:32:21.451Z,1004.75
2018-11-25T00:33:21.386Z,1004.72
2018-11-25T00:34:21.286Z,1004.73
2018-11-25T00:35:21.209Z,1004.74
2018-11-25T00:36:21.144Z,1004.74
2018-11-25T00:37:21.047Z,1004.72
2018-11-25T00:38:20.961Z,1004.69
2018-11-25T00:39:20.884Z,1004.72
2018-11-25T00:40:20.810Z,1004.68
2018-11-25T00:41:20.731Z,1004.68
2018-11-25T00:42:20.641Z,1004.66
2018-11-25T00:43:20.567Z,1004.64
2018-11-25T00:44:20.486Z,1004.62
2018-11-25T00:45:20.411Z,1004.65
2018-11-25T00:46:20.333Z,1004.60
2018-11-25T00:47:20.248Z,1004.64
2018-11-25T00:48:20.171Z,1004.62
2018-11-25T00:49:20.090Z,1004.61
2018-11-25T00:50:20.041Z,1004.62
2018-11-25T00:51:19.927Z,1004.58
2018-11-25T00:52:19.865Z,1004.52
2018-11-25T00:53:19.819Z,1004.52
2018-11-25T00:54:19.699Z,1004.53
2018-11-25T00:55:19.652Z,1004.54
2018-11-25T00:56:19.543Z,1004.55
2018-11-25T00:57:19.520Z,1004.50
2018-11-25T00:58:19.389Z,1004.48
2018-11-25T00:59:19.332Z,1004.52
2018-11-25T01:00:19.261Z,1004.51
2018-11-25T01:01:19.126Z,1004.50
2018-11-25T01:02:19.052Z,1004.53
2018-11-25T01:03:18.971Z,1004.50
2018-11-25T01:04:18.909Z,1004.57
2018-11-25T01:05:18.815Z,1004.53
2018-11-25T01:06:18.731Z,1004.51
2018-11-25T01:07:18.648Z,1004.52
2018-11-25T01:08:18.584Z,1004.53
2018-11-25T01:09:18.500Z,1004.51
2018-11-25T01:10:18.420Z,1004.55
2018-11-25T01:11:18.329Z,1004.51
2018-11-25T01:12:18.273Z,1004.52
2018-11-25T01:13:18.169Z,1004.51
2018-11-25T01:14:18.100Z,1004.54
2018-11-25T01:15:18.028Z,1004.51
2018-11-25T01:16:17.937Z,1004.49
2018-11-25T01:17:17.863Z,1004.48
2018-11-25T01:18:17.779Z,1004.55
2018-11-25T01:19:17.691Z,1004.49
2018-11-25T01:20:17.634Z,1004.48
2018-11-25T01:21:17.595Z,1004.46
2018-11-25T01:22:17.459Z,1004.48
2018-11-25T01:23:17.411Z,1004.49
2018-11-25T01:24:17.309Z,1004.51
2018-11-25T01:25:17.217Z,1004.54
2018-11-25T01:26:17.130Z,1004.58
2018-11-25T01:27:17.045Z,1004.57
2018-11-25T01:28:17.006Z,1004.60
2018-11-25T01:29:16.927Z,1004.58
2018-11-25T01:30:16.814Z,1004.63
2018-11-25T01:31:16.734Z,1004.61
2018-11-25T01:32:16.655Z,1004.65
2018-11-25T01:33:16.590Z,1004.63
2018-11-25T01:34:16.498Z,1004.67
2018-11-25T01:35:16.419Z,1004.65
2018-11-25T01:36:16.325Z,1004.64
2018-11-25T01:37:16.257Z,1004.63
2018-11-25T01:38:16.223Z,1004.65
2018-11-25T01:39:16.133Z,1004.68
2018-11-25T01:40:16.003Z,1004.70
2018-11-25T01:41:15.951Z,1004.68
2018-11-25T01:42:15.860Z,1004.68
2018-11-25T01:43:15.786Z,1004.67
2018-11-25T01:44:15.711Z,1004.64
2018-11-25T01:45:15.614Z,1004.69
2018-11-25T01:46:15.528Z,1004.70
2018-11-25T01:47:15.470Z,1004.68
2018-11-25T01:48:15.370Z,1004.68
2018-11-25T01:49:15.294Z,1004.70
2018-11-25T01:50:15.210Z,1004.75
2018-11-25T01:51:15.130Z,1004.74
2018-11-25T01:52:15.043Z,1004.73
2018-11-25T01:53:14.971Z,1004.70
2018-11-25T01:54:14.902Z,1004.66
2018-11-25T01:55:14.845Z,1004.70
2018-11-25T01:56:14.725Z,1004.65
2018-11-25T01:57:14.654Z,1004.62
2018-11-25T01:58:14.581Z,1004.64
2018-11-25T01:59:14.498Z,1004.61
2018-11-25T02:00:14.446Z,1004.61
2018-11-25T02:01:14.360Z,1004.57
2018-11-25T02:02:14.283Z,1004.61
2018-11-25T02:03:14.168Z,1004.57
2018-11-25T02:04:14.093Z,1004.59
2018-11-25T02:05:14.053Z,1004.58
2018-11-25T02:06:13.945Z,1004.57
2018-11-25T02:07:13.866Z,1004.58
2018-11-25T02:08:13.789Z,1004.62
2018-11-25T02:09:13.685Z,1004.62
2018-11-25T02:10:13.620Z,1004.64
2018-11-25T02:11:13.549Z,1004.64
2018-11-25T02:12:13.445Z,1004.62
2018-11-25T02:13:13.382Z,1004.65
2018-11-25T02:14:13.297Z,1004.63
2018-11-25T02:15:13.225Z,1004.63
2018-11-25T02:16:13.120Z,1004.64
2018-11-25T02:17:13.061Z,1004.59
2018-11-25T02:18:12.972Z,1004.60
2018-11-25T02:19:12.906Z,1004.56
2018-11-25T02:20:12.823Z,1004.58
2018-11-25T02:21:12.764Z,1004.56
2018-11-25T02:22:12.683Z,1004.54
2018-11-25T02:23:12.572Z,1004.50
2018-11-25T02:24:12.541Z,1004.51
2018-11-25T02:25:12.444Z,1004.49
2018-11-25T02:26:12.319Z,1004.41
2018-11-25T02:27:12.260Z,1004.45
2018-11-25T02:28:12.180Z,1004.47
2018-11-25T02:29:12.103Z,1004.46
2018-11-25T02:30:12.015Z,1004.42
2018-11-25T02:31:11.925Z,1004.43
2018-11-25T02:32:11.854Z,1004.39
2018-11-25T02:33:11.791Z,1004.39
2018-11-25T02:34:11.697Z,1004.34
2018-11-25T02:35:11.624Z,1004.31
2018-11-25T02:36:11.529Z,1004.33
2018-11-25T02:37:11.454Z,1004.33
2018-11-25T02:38:11.365Z,1004.33
2018-11-25T02:39:11.316Z,1004.30
2018-11-25T02:40:11.222Z,1004.32
2018-11-25T02:41:11.153Z,1004.28
2018-11-25T02:42:11.044Z,1004.33
2018-11-25T02:43:10.975Z,1004.25
2018-11-25T02:44:10.891Z,1004.35
2018-11-25T02:45:10.817Z,1004.28
2018-11-25T02:46:10.746Z,1004.28
2018-11-25T02:47:10.650Z,1004.30
2018-11-25T02:48:10.567Z,1004.30
2018-11-25T02:49:10.489Z,1004.29
2018-11-25T02:50:10.410Z,1004.29
2018-11-25T02:51:10.340Z,1004.28
2018-11-25T02:52:10.282Z,1004.33
2018-11-25T02:53:10.162Z,1004.30
2018-11-25T02:54:10.131Z,1004.32
2018-11-25T02:55:10.007Z,1004.30
2018-11-25T02:56:09.941Z,1004.24
2018-11-25T02:57:09.842Z,1004.25
2018-11-25T02:58:09.772Z,1004.29
2018-11-25T02:59:09.695Z,1004.30
2018-11-25T03:00:09.625Z,1004.25
2018-11-25T03:01:09.548Z,1004.29
2018-11-25T03:02:09.476Z,1004.26
2018-11-25T03:03:09.358Z,1004.28
2018-11-25T03:04:09.326Z,1004.26
2018-11-25T03:05:09.212Z,1004.21
2018-11-25T03:06:09.143Z,1004.23
2018-11-25T03:07:09.145Z,1004.23
2018-11-25T03:08:08.983Z,1004.19
2018-11-25T03:09:08.921Z,1004.18
2018-11-25T03:10:08.835Z,1004.23
2018-11-25T03:11:08.747Z,1004.25
2018-11-25T03:12:08.646Z,1004.25
2018-11-25T03:13:08.604Z,1004.25
2018-11-25T03:14:08.486Z,1004.30
2018-11-25T03:15:08.408Z,1004.28
2018-11-25T03:16:08.347Z,1004.31
2018-11-25T03:17:08.241Z,1004.27
2018-11-25T03:18:08.162Z,1004.30
2018-11-25T03:19:08.082Z,1004.28
2018-11-25T03:20:08.008Z,1004.23
2018-11-25T03:21:07.950Z,1004.27
2018-11-25T03:22:07.839Z,1004.24
2018-11-25T03:23:07.782Z,1004.25
2018-11-25T03:24:07.687Z,1004.30
2018-11-25T03:25:07.643Z,1004.26
2018-11-25T03:26:07.560Z,1004.24
2018-11-25T03:27:07.451Z,1004.24
2018-11-25T03:28:07.370Z,1004.20
2018-11-25T03:29:07.341Z,1004.24
2018-11-25T03:30:07.232Z,1004.20
2018-11-25T03:31:07.125Z,1004.19
2018-11-25T03:32:07.051Z,1004.15
2018-11-25T03:33:06.970Z,1004.13
2018-11-25T03:34:06.938Z,1004.15
2018-11-25T03:35:06.849Z,1004.09
2018-11-25T03:36:06.727Z,1004.15
2018-11-25T03:37:06.670Z,1004.17
2018-11-25T03:38:06.569Z,1004.19
2018-11-25T03:39:06.515Z,1004.16
2018-11-25T03:40:06.425Z,1004.16
2018-11-25T03:41:06.334Z,1004.13
2018-11-25T03:42:06.261Z,1004.16
2018-11-25T03:43:06.173Z,1004.19
2018-11-25T03:44:06.095Z,1004.19
2018-11-25T03:45:06.028Z,1004.21
2018-11-25T03:46:05.949Z,1004.23
2018-11-25T03:47:05.843Z,1004.17
2018-11-25T03:48:05.755Z,1004.19
2018-11-25T03:49:05.699Z,1004.17
2018-11-25T03:50:05.598Z,1004.25
2018-11-25T03:51:05.572Z,1004.23
2018-11-25T03:52:05.480Z,1004.23
2018-11-25T03:53:05.383Z,1004.22
2018-11-25T03:54:05.296Z,1004.21
2018-11-25T03:55:05.221Z,1004.21
2018-11-25T03:56:05.144Z,1004.20
2018-11-25T03:57:05.092Z,1004.20
2018-11-25T03:58:04.977Z,1004.20
2018-11-25T03:59:04.905Z,1004.19
2018-11-25T04:00:04.809Z,1004.20
2018-11-25T04:01:04.732Z,1004.21
2018-11-25T04:02:04.640Z,1004.17
2018-11-25T04:03:04.581Z,1004.18
2018-11-25T04:04:04.520Z,1004.19
2018-11-25T04:05:04.410Z,1004.20
2018-11-25T04:06:04.315Z,1004.16
2018-11-25T04:07:04.254Z,1004.13
2018-11-25T04:08:04.187Z,1004.16
2018-11-25T04:09:04.117Z,1004.14
2018-11-25T04:10:04.022Z,1004.10
2018-11-25T04:11:03.916Z,1004.12
2018-11-25T04:12:03.852Z,1004.12
2018-11-25T04:13:03.768Z,1004.11
2018-11-25T04:14:03.693Z,1004.14
2018-11-25T04:15:03.603Z,1004.14
2018-11-25T04:16:03.529Z,1004.15
2018-11-25T04:17:03.473Z,1004.12
2018-11-25T04:18:03.358Z,1004.13
2018-11-25T04:19:03.280Z,1004.19
2018-11-25T04:20:03.217Z,1004.15
2018-11-25T04:21:03.109Z,1004.14
2018-11-25T04:22:03.050Z,1004.16
2018-11-25T04:23:02.966Z,1004.16
2018-11-25T04:24:02.910Z,1004.18
2018-11-25T04:25:02.813Z,1004.21
2018-11-25T04:26:02.726Z,1004.23
2018-11-25T04:27:02.639Z,1004.22
2018-11-25T04:28:02.557Z,1004.23
2018-11-25T04:29:02.483Z,1004.26
2018-11-25T04:30:02.405Z,1004.27
2018-11-25T04:31:02.315Z,1004.24
2018-11-25T04:32:02.243Z,1004.27
2018-11-25T04:33:02.164Z,1004.26
2018-11-25T04:34:02.108Z,1004.26
2018-11-25T04:35:02.019Z,1004.22
2018-11-25T04:36:01.926Z,1004.22
2018-11-25T04:37:01.848Z,1004.23
2018-11-25T04:38:01.797Z,1004.25
2018-11-25T04:39:01.670Z,1004.16
2018-11-25T04:40:01.672Z,1004.17
2018-11-25T04:41:01.550Z,1004.14
2018-11-25T04:42:01.465Z,1004.06
2018-11-25T04:43:01.379Z,1004.10
2018-11-25T04:44:01.309Z,1004.05
2018-11-25T04:45:01.194Z,1004.05
2018-11-25T04:46:01.179Z,1004.05
2018-11-25T04:47:01.040Z,1004.04
2018-11-25T04:48:00.962Z,1004.08
2018-11-25T04:49:00.904Z,1004.08
2018-11-25T04:50:00.838Z,1004.12
2018-11-25T04:51:00.708Z,1004.11
2018-11-25T04:52:00.643Z,1004.14
2018-11-25T04:53:00.552Z,1004.10
2018-11-25T04:54:00.475Z,1004.14
2018-11-25T04:55:00.398Z,1004.14
2018-11-25T04:56:00.310Z,1004.10
2018-11-25T04:57:00.268Z,1004.10
2018-11-25T04:58:00.184Z,1004.11
2018-11-25T04:59:00.104Z,1004.11
2018-11-25T05:00:00.007Z,1004.09
2018-11-25T05:00:59.933Z,1004.15
2018-11-25T05:01:59.834Z,1004.10
2018-11-25T05:02:59.766Z,1004.16
2018-11-25T05:03:59.714Z,1004.10
2018-11-25T05:04:59.604Z,1004.09
2018-11-25T05:05:59.524Z,1004.06
2018-11-25T05:06:59.449Z,1004.03
2018-11-25T05:07:59.378Z,1004.02
2018-11-25T05:08:59.286Z,1004.06
2018-11-25T05:09:59.213Z,1004.00
2018-11-25T05:10:59.119Z,1003.99
2018-11-25T05:11:59.049Z,1003.96
2018-11-25T05:12:58.978Z,1003.98
2018-11-25T05:13:58.898Z,1003.98
2018-11-25T05:14:58.817Z,1003.98
2018-11-25T05:15:58.726Z,1003.96
2018-11-25T05:16:58.624Z,1003.96
2018-11-25T05:17:58.595Z,1004.01
2018-11-25T05:18:58.467Z,1003.94
2018-11-25T05:19:58.403Z,1003.96
2018-11-25T05:20:58.341Z,1003.93
2018-11-25T05:21:58.230Z,1003.95
2018-11-25T05:22:58.145Z,1003.92
2018-11-25T05:23:58.061Z,1003.92
2018-11-25T05:24:58.011Z,1003.90
2018-11-25T05:25:57.899Z,1003.83
2018-11-25T05:26:57.846Z,1003.84
2018-11-25T05:27:57.765Z,1003.88
2018-11-25T05:28:57.669Z,1003.83
2018-11-25T05:29:57.608Z,1003.85
2018-11-25T05:30:57.514Z,1003.86
2018-11-25T05:31:57.470Z,1003.89
2018-11-25T05:32:57.379Z,1003.91
2018-11-25T05:33:57.282Z,1003.96
2018-11-25T05:34:57.185Z,1003.91
2018-11-25T05:35:57.099Z,1003.93
2018-11-25T05:36:57.065Z,1003.93
2018-11-25T05:37:56.966Z,1003.94
2018-11-25T05:38:56.859Z,1003.93
2018-11-25T05:39:56.784Z,1003.93
2018-11-25T05:40:56.706Z,1003.98
2018-11-25T05:41:56.635Z,1003.95
2018-11-25T05:42:56.538Z,1003.99
2018-11-25T05:43:56.462Z,1003.98
2018-11-25T05:44:56.376Z,1003.96
2018-11-25T05:45:56.341Z,1003.95
2018-11-25T05:46:56.232Z,1003.95
2018-11-25T05:47:56.136Z,1003.95
2018-11-25T05:48:56.056Z,1003.95
2018-11-25T05:49:55.972Z,1003.97
2018-11-25T05:50:55.916Z,1003.97
2018-11-25T05:51:55.821Z,1003.91
2018-11-25T05:52:55.761Z,1003.95
2018-11-25T05:53:55.721Z,1003.97
2018-11-25T05:54:55.580Z,1003.96
2018-11-25T05:55:55.618Z,1003.94
2018-11-25T05:56:55.407Z,1003.93
2018-11-25T05:57:55.331Z,1003.95
2018-11-25T05:58:55.246Z,1003.94
2018-11-25T05:59:55.199Z,1003.92
2018-11-25T06:00:55.111Z,1003.92
2018-11-25T06:01:55.042Z,1003.93
2018-11-25T06:02:54.920Z,1003.95
2018-11-25T06:03:54.871Z,1003.90
2018-11-25T06:04:54.767Z,1003.92
2018-11-25T06:05:54.750Z,1003.94
2018-11-25T06:06:54.597Z,1003.89
2018-11-25T06:07:54.542Z,1003.87
2018-11-25T06:08:54.471Z,1003.92
2018-11-25T06:09:54.383Z,1003.87
2018-11-25T06:10:54.318Z,1003.90
2018-11-25T06:11:54.205Z,1003.88
2018-11-25T06:12:54.169Z,1003.89
2018-11-25T06:13:54.040Z,1003.85
2018-11-25T06:14:53.968Z,1003.87
2018-11-25T06:15:53.883Z,1003.88
2018-11-25T06:16:54.442Z,1003.89
2018-11-25T06:17:53.720Z,1003.86
2018-11-25T06:18:53.642Z,1003.87
2018-11-25T06:19:53.563Z,1003.83
2018-11-25T06:20:53.480Z,1003.89
2018-11-25T06:21:53.423Z,1003.86
2018-11-25T06:22:53.358Z,1003.89
2018-11-25T06:23:53.245Z,1003.91
2018-11-25T06:24:53.173Z,1003.94
2018-11-25T06:25:53.113Z,1003.90
2018-11-25T06:26:53.010Z,1003.92
2018-11-25T06:27:52.931Z,1003.92
2018-11-25T06:28:52.850Z,1003.96
2018-11-25T06:29:52.763Z,1003.96
2018-11-25T06:30:52.680Z,1003.97
2018-11-25T06:31:52.595Z,1003.97
2018-11-25T06:32:52.528Z,1003.98
2018-11-25T06:33:52.448Z,1003.97
2018-11-25T06:34:52.364Z,1003.93
2018-11-25T06:35:52.288Z,1003.95
2018-11-25T06:36:52.210Z,1003.96
2018-11-25T06:37:52.139Z,1003.94
2018-11-25T06:38:52.093Z,1003.94
2018-11-25T06:39:51.963Z,1003.95
2018-11-25T06:40:51.875Z,1003.95
2018-11-25T06:41:51.841Z,1004.02
2018-11-25T06:42:51.709Z,1004.01
2018-11-25T06:43:51.631Z,1004.01
2018-11-25T06:44:51.561Z,1003.96
2018-11-25T06:45:51.466Z,1003.96
2018-11-25T06:46:51.396Z,1004.01
2018-11-25T06:47:51.329Z,1004.00
2018-11-25T06:48:54.977Z,1003.99
2018-11-25T06:49:51.219Z,1004.01
2018-11-25T06:50:51.084Z,1004.01
2018-11-25T06:51:50.987Z,1004.03
2018-11-25T06:52:50.930Z,1004.00
2018-11-25T06:53:50.837Z,1004.02
2018-11-25T06:54:50.804Z,1004.05
2018-11-25T06:55:50.675Z,1004.01
2018-11-25T06:56:50.592Z,1004.01
2018-11-25T06:57:50.518Z,1004.00
2018-11-25T06:58:50.442Z,1004.00
2018-11-25T06:59:50.340Z,1004.04
2018-11-25T07:00:50.269Z,1004.04
2018-11-25T07:01:50.215Z,1004.00
2018-11-25T07:02:50.159Z,1003.99
2018-11-25T07:03:50.031Z,1004.00
2018-11-25T07:04:49.999Z,1003.95
2018-11-25T07:05:49.892Z,1003.95
2018-11-25T07:06:49.781Z,1003.97
2018-11-25T07:07:49.702Z,1003.97
2018-11-25T07:08:49.640Z,1004.00
2018-11-25T07:09:49.537Z,1004.00
2018-11-25T07:10:49.463Z,1003.92
2018-11-25T07:11:49.397Z,1003.97
2018-11-25T07:12:49.327Z,1004.03
2018-11-25T07:13:49.223Z,1004.04
2018-11-25T07:14:49.169Z,1004.06
2018-11-25T07:15:49.067Z,1004.05
2018-11-25T07:16:48.986Z,1004.04
2018-11-25T07:17:48.900Z,1004.06
2018-11-25T07:18:48.817Z,1004.06
2018-11-25T07:19:48.746Z,1004.07
2018-11-25T07:20:48.682Z,1004.05
2018-11-25T07:21:48.637Z,1004.07
2018-11-25T07:22:48.538Z,1004.04
2018-11-25T07:23:48.425Z,1004.05
2018-11-25T07:24:48.335Z,1004.06
2018-11-25T07:25:48.292Z,1004.09
2018-11-25T07:26:48.175Z,1004.09
2018-11-25T07:27:48.102Z,1004.17
2018-11-25T07:28:48.012Z,1004.12
2018-11-25T07:29:47.943Z,1004.12
2018-11-25T07:30:47.853Z,1004.14
2018-11-25T07:31:47.811Z,1004.16
2018-11-25T07:32:47.723Z,1004.15
2018-11-25T07:33:47.610Z,1004.14
2018-11-25T07:34:47.548Z,1004.16
2018-11-25T07:35:47.462Z,1004.14
2018-11-25T07:36:47.390Z,1004.17
2018-11-25T07:37:47.340Z,1004.17
2018-11-25T07:38:47.211Z,1004.17
2018-11-25T07:39:47.155Z,1004.12
2018-11-25T07:40:47.057Z,1004.13
2018-11-25T07:41:47.000Z,1004.12
2018-11-25T07:42:46.940Z,1004.10
2018-11-25T07:43:46.828Z,1004.09
2018-11-25T07:44:46.827Z,1004.02
2018-11-25T07:45:46.670Z,1004.07
2018-11-25T07:46:46.602Z,1004.02
2018-11-25T07:47:46.495Z,1004.00
2018-11-25T07:48:46.406Z,1003.99
2018-11-25T07:49:46.358Z,1004.01
2018-11-25T07:50:46.272Z,1003.98
2018-11-25T07:51:46.161Z,1003.98
2018-11-25T07:52:46.118Z,1003.97
2018-11-25T07:53:46.032Z,1003.98
2018-11-25T07:54:45.963Z,1004.04
2018-11-25T07:55:45.879Z,1004.02
2018-11-25T07:56:45.825Z,1004.05
2018-11-25T07:57:45.685Z,1004.03
2018-11-25T07:58:45.635Z,1004.00
2018-11-25T07:59:45.524Z,1004.00
2018-11-25T08:00:45.455Z,1003.99
2018-11-25T08:01:45.371Z,1003.99
2018-11-25T08:02:45.312Z,1004.03
2018-11-25T08:03:45.218Z,1003.97
2018-11-25T08:04:45.132Z,1004.02
2018-11-25T08:05:45.050Z,1004.02
2018-11-25T08:06:45.034Z,1003.98
2018-11-25T08:07:44.905Z,1004.00
2018-11-25T08:08:44.809Z,1003.97
2018-11-25T08:09:44.752Z,1003.95
2018-11-25T08:10:44.653Z,1003.95
2018-11-25T08:11:46.938Z,1003.95
2018-11-25T08:12:44.498Z,1003.94
2018-11-25T08:13:44.439Z,1003.93
2018-11-25T08:14:44.351Z,1003.91
2018-11-25T08:15:44.326Z,1003.96
2018-11-25T08:16:44.175Z,1003.91
2018-11-25T08:17:44.142Z,1003.90
2018-11-25T08:18:44.055Z,1003.86
2018-11-25T08:19:43.930Z,1003.90
2018-11-25T08:20:43.843Z,1003.89
2018-11-25T08:21:43.785Z,1003.82
2018-11-25T08:22:43.697Z,1003.86
2018-11-25T08:23:43.620Z,1003.88
2018-11-25T08:24:43.553Z,1003.85
2018-11-25T08:25:43.472Z,1003.92
2018-11-25T08:26:43.378Z,1003.92
2018-11-25T08:27:43.321Z,1003.91
2018-11-25T08:28:43.207Z,1003.91
2018-11-25T08:29:43.186Z,1003.91
2018-11-25T08:30:43.036Z,1003.92
2018-11-25T08:31:43.009Z,1003.92
2018-11-25T08:32:42.907Z,1003.93
2018-11-25T08:33:42.821Z,1003.96
2018-11-25T08:34:42.752Z,1003.96
2018-11-25T08:35:42.748Z,1003.98
2018-11-25T08:36:42.568Z,1003.97
2018-11-25T08:37:42.492Z,1003.98
2018-11-25T08:38:42.421Z,1003.96
2018-11-25T08:39:42.329Z,1003.99
2018-11-25T08:40:42.263Z,1003.90
2018-11-25T08:41:42.190Z,1003.97
2018-11-25T08:42:42.103Z,1003.99
2018-11-25T08:43:42.061Z,1003.96
2018-11-25T08:44:41.926Z,1003.96
2018-11-25T08:45:41.854Z,1004.01
2018-11-25T08:46:41.763Z,1004.00
2018-11-25T08:47:41.720Z,1004.00
2018-11-25T08:48:41.644Z,1003.99
2018-11-25T08:49:41.560Z,1003.97
2018-11-25T08:50:41.489Z,1003.95
2018-11-25T08:51:41.375Z,1004.00
2018-11-25T08:52:41.296Z,1003.94
2018-11-25T08:53:41.237Z,1003.93
2018-11-25T08:54:41.128Z,1003.92
2018-11-25T08:55:41.088Z,1003.93
2018-11-25T08:56:40.991Z,1003.91
2018-11-25T08:57:40.898Z,1003.90
2018-11-25T08:58:40.836Z,1003.91
2018-11-25T08:59:40.766Z,1003.93
2018-11-25T09:00:40.657Z,1003.88
2018-11-25T09:01:40.592Z,1003.90
2018-11-25T09:02:40.517Z,1003.91
2018-11-25T09:03:40.451Z,1003.90
2018-11-25T09:04:40.344Z,1003.88
2018-11-25T09:05:40.277Z,1003.87
2018-11-25T09:06:40.181Z,1003.94
2018-11-25T09:07:40.115Z,1003.93
2018-11-25T09:08:40.022Z,1003.94
2018-11-25T09:09:39.965Z,1003.93
2018-11-25T09:10:39.860Z,1003.93
2018-11-25T09:11:39.794Z,1003.95
2018-11-25T09:12:39.703Z,1003.91
2018-11-25T09:13:39.617Z,1003.91
2018-11-25T09:14:39.537Z,1003.94
2018-11-25T09:15:39.460Z,1003.93
2018-11-25T09:16:39.382Z,1003.92
2018-11-25T09:17:39.302Z,1003.94
2018-11-25T09:18:39.273Z,1003.95
2018-11-25T09:19:39.157Z,1003.91
2018-11-25T09:20:39.060Z,1003.90
2018-11-25T09:21:39.020Z,1003.92
2018-11-25T09:22:38.892Z,1003.93
2018-11-25T09:23:38.865Z,1003.91
2018-11-25T09:24:38.788Z,1003.91
2018-11-25T09:25:38.659Z,1003.90
2018-11-25T09:26:38.649Z,1003.91
2018-11-25T09:27:38.556Z,1003.89
2018-11-25T09:28:38.438Z,1003.85
2018-11-25T09:29:38.367Z,1003.85
2018-11-25T09:30:38.289Z,1003.88
2018-11-25T09:31:38.215Z,1003.88
2018-11-25T09:32:38.105Z,1003.87
2018-11-25T09:33:38.116Z,1003.85
2018-11-25T09:34:37.940Z,1003.87
2018-11-25T09:35:37.869Z,1003.87
2018-11-25T09:36:37.802Z,1003.86
2018-11-25T09:37:37.703Z,1003.88
2018-11-25T09:38:37.629Z,1003.88
2018-11-25T09:39:37.549Z,1003.88
2018-11-25T09:40:37.500Z,1003.88
2018-11-25T09:41:37.385Z,1003.89
2018-11-25T09:42:37.301Z,1003.89
2018-11-25T09:43:37.243Z,1003.95
2018-11-25T09:44:37.162Z,1003.91
2018-11-25T09:45:37.079Z,1003.91
2018-11-25T09:46:42.530Z,1003.91
2018-11-25T09:47:36.919Z,1003.91
2018-11-25T09:48:36.867Z,1003.87
2018-11-25T09:49:36.767Z,1003.86
2018-11-25T09:50:36.688Z,1003.86
2018-11-25T09:51:36.614Z,1003.86
2018-11-25T09:52:36.535Z,1003.88
2018-11-25T09:53:36.476Z,1003.86
2018-11-25T09:54:36.355Z,1003.87
2018-11-25T09:55:36.299Z,1003.85
2018-11-25T09:56:36.233Z,1003.87
2018-11-25T09:57:36.134Z,1003.86
2018-11-25T09:58:36.048Z,1003.85
2018-11-25T09:59:35.951Z,1003.84
2018-11-25T10:00:37.137Z,1003.84
2018-11-25T10:01:35.826Z,1003.81
2018-11-25T10:02:35.752Z,1003.80
2018-11-25T10:03:35.678Z,1003.86
2018-11-25T10:04:35.564Z,1003.82
2018-11-25T10:05:35.478Z,1003.82
2018-11-25T10:06:35.426Z,1003.82
2018-11-25T10:07:35.339Z,1003.84
2018-11-25T10:08:35.243Z,1003.87
2018-11-25T10:09:35.222Z,1003.85
2018-11-25T10:10:35.147Z,1003.86
2018-11-25T10:11:35.006Z,1003.87
2018-11-25T10:12:34.913Z,1003.86
2018-11-25T10:13:34.881Z,1003.86
2018-11-25T10:14:34.765Z,1003.86
2018-11-25T10:15:34.710Z,1003.88
2018-11-25T10:16:34.607Z,1003.87
2018-11-25T10:17:34.518Z,1003.85
2018-11-25T10:18:34.444Z,1003.93
2018-11-25T10:19:34.365Z,1003.86
2018-11-25T10:21:34.261Z,1003.87
2018-11-25T10:22:34.157Z,1003.89
2018-11-25T10:23:34.058Z,1003.86
2018-11-25T10:24:34.001Z,1003.84
2018-11-25T10:25:33.899Z,1003.86
2018-11-25T10:26:33.817Z,1003.86
2018-11-25T10:27:54.718Z,1003.84
2018-11-25T10:28:33.690Z,1003.80
2018-11-25T10:29:33.587Z,1003.80
2018-11-25T10:30:33.503Z,1003.75
2018-11-25T10:31:33.428Z,1003.76
2018-11-25T10:32:33.389Z,1003.75
2018-11-25T10:33:54.233Z,1003.75
2018-11-25T10:34:33.175Z,1003.73
2018-11-25T10:35:33.137Z,1003.74
2018-11-25T10:36:33.036Z,1003.73
2018-11-25T10:37:32.963Z,1003.77
2018-11-25T10:38:32.866Z,1003.75
2018-11-25T10:39:53.773Z,1003.79
2018-11-25T10:40:32.741Z,1003.69
2018-11-25T10:41:32.757Z,1003.72
2018-11-25T10:42:32.583Z,1003.70
2018-11-25T10:43:32.539Z,1003.70
2018-11-25T10:44:32.403Z,1003.71
2018-11-25T10:45:53.391Z,1003.69
2018-11-25T10:46:32.235Z,1003.62
2018-11-25T10:47:32.157Z,1003.64
2018-11-25T10:48:32.099Z,1003.65
2018-11-25T10:49:32.031Z,1003.62
2018-11-25T10:50:31.916Z,1003.64
2018-11-25T10:51:52.829Z,1003.60
2018-11-25T10:52:31.753Z,1003.64
2018-11-25T10:53:31.721Z,1003.67
2018-11-25T10:54:31.638Z,1003.67
2018-11-25T10:55:31.531Z,1003.64
2018-11-25T10:56:31.479Z,1003.64
2018-11-25T10:57:52.635Z,1003.65
2018-11-25T10:58:31.314Z,1003.64
2018-11-25T10:59:31.239Z,1003.65
2018-11-25T11:00:31.125Z,1003.61
2018-11-25T11:01:31.076Z,1003.64
2018-11-25T11:02:31.009Z,1003.64
2018-11-25T11:03:51.859Z,1003.62
2018-11-25T11:04:30.848Z,1003.61
2018-11-25T11:05:30.764Z,1003.60
2018-11-25T11:06:30.705Z,1003.60
2018-11-25T11:07:30.594Z,1003.59
2018-11-25T11:08:30.517Z,1003.58
2018-11-25T11:09:51.420Z,1003.56
2018-11-25T11:10:30.352Z,1003.56
2018-11-25T11:11:30.249Z,1003.57
2018-11-25T11:12:30.169Z,1003.47
2018-11-25T11:13:30.123Z,1003.51
2018-11-25T11:14:30.062Z,1003.43
2018-11-25T11:15:50.956Z,1003.44
2018-11-25T11:16:29.881Z,1003.47
2018-11-25T11:17:29.809Z,1003.39
2018-11-25T11:18:29.730Z,1003.48
2018-11-25T11:19:29.669Z,1003.43
2018-11-25T11:20:29.600Z,1003.43
2018-11-25T11:21:50.439Z,1003.41
2018-11-25T11:22:29.409Z,1003.41
2018-11-25T11:23:29.316Z,1003.40
2018-11-25T11:24:29.258Z,1003.38
2018-11-25T11:25:29.155Z,1003.37
2018-11-25T11:26:29.092Z,1003.39
2018-11-25T11:27:50.008Z,1003.35
2018-11-25T11:28:28.938Z,1003.34
2018-11-25T11:29:28.878Z,1003.33
2018-11-25T11:30:28.787Z,1003.36
2018-11-25T11:31:28.720Z,1003.33
2018-11-25T11:32:28.614Z,1003.26
2018-11-25T11:33:49.538Z,1003.31
2018-11-25T11:34:28.454Z,1003.31
2018-11-25T11:35:28.396Z,1003.26
2018-11-25T11:36:28.279Z,1003.27
2018-11-25T11:37:28.221Z,1003.25
2018-11-25T11:38:28.130Z,1003.30
2018-11-25T11:39:49.022Z,1003.25
2018-11-25T11:40:27.960Z,1003.25
2018-11-25T11:41:27.884Z,1003.28
2018-11-25T11:42:28.610Z,1003.24
2018-11-25T11:43:27.732Z,1003.24
2018-11-25T11:44:27.646Z,1003.26
2018-11-25T11:45:48.595Z,1003.28
2018-11-25T11:46:27.506Z,1003.27
2018-11-25T11:47:27.413Z,1003.23
2018-11-25T11:48:27.324Z,1003.22
2018-11-25T11:49:27.261Z,1003.24
2018-11-25T11:50:27.170Z,1003.24
2018-11-25T11:51:48.119Z,1003.19
2018-11-25T11:52:27.064Z,1003.17
2018-11-25T11:53:26.974Z,1003.17
2018-11-25T11:54:26.870Z,1003.17
2018-11-25T11:55:26.802Z,1003.21
2018-11-25T11:56:26.733Z,1003.21
2018-11-25T11:57:47.629Z,1003.24
2018-11-25T11:58:26.533Z,1003.24
2018-11-25T11:59:26.533Z,1003.28
2018-11-25T12:00:26.442Z,1003.26
2018-11-25T12:01:26.336Z,1003.31
2018-11-25T12:02:31.480Z,1003.28
2018-11-25T12:03:47.139Z,1003.27
2018-11-25T12:04:26.070Z,1003.25
2018-11-25T12:05:25.981Z,1003.26